»·PEaware :: RNGR808 KNGP-KNGP

RNGR808 :: KNGP-KNGP

FLIGHT INFORMATION

Flight Status: Arrived
Operator: Unknown
More flights by this operator :: More flights under this callsign
Pilot: USN Avenger (31125)
Aircraft: BEECH AIRCRAFT T-6A TEXAN
(TEX2)
More flights by this aircraft type
Origin: KNGP Corpus Christi NAS/Truax
United States
Destination: KNGP Corpus Christi NAS/Truax
United States
More flights between these airports :: More routes between these airports
Route: SOUTH FLOW PORTLAND LOW KNGT KTFP
File this flight plan on PilotEdge
Remarks:
Altitude:
(Current/Filed)
4,500ft
Speed:
(Current/Filed)
240kts
Departed: 16-Nov-23 06:49 AM
Arrived: 16-Nov-23 07:45 AM
Distance/Time
Traveled:
1nm/0:56
Distance/Time
To Go:
Arrived

Flight Plot

Page will automatically refresh every two minutes.

Flight plan parsing failed; only flown route is shown


Map Options




Map Legend


Flown Route
Filed Route
Departure Airport
Arrival Airport
Navaid (VOR, NDB)
Fix

Horizontal Profiles

Position Reports

Time Latitude Longitude Heading Altitude Ground
Speed
16-Nov-23 06:41 27.698546 -97.284286 158 22ft 0kts
16-Nov-23 06:42 27.698544 -97.284285 158 22ft 0kts
16-Nov-23 06:43 27.698537 -97.284282 158 22ft 1kts
16-Nov-23 06:44 27.699497 -97.286180 286 22ft 11kts
16-Nov-23 06:45 27.697114 -97.289267 233 22ft 19kts
16-Nov-23 06:46 27.695996 -97.290772 224 22ft 0kts
16-Nov-23 06:47 27.695824 -97.290962 232 22ft 0kts
16-Nov-23 06:48 27.695009 -97.291516 137 22ft 0kts
16-Nov-23 06:49 27.685503 -97.279674 126 221ft 147kts
16-Nov-23 06:50 27.655324 -97.230194 104 821ft 209kts
16-Nov-23 06:51 27.695199 -97.216459 349 3301ft 196kts
16-Nov-23 06:52 27.752141 -97.227569 350 5241ft 212kts
16-Nov-23 06:53 27.813424 -97.241378 345 5562ft 235kts
16-Nov-23 06:54 27.878916 -97.260029 346 5606ft 246kts
16-Nov-23 06:55 27.944738 -97.283675 339 5560ft 249kts
16-Nov-23 06:56 28.009733 -97.311661 338 5579ft 254kts
16-Nov-23 06:57 28.075468 -97.339231 341 5584ft 249kts
16-Nov-23 06:58 28.142447 -97.363391 344 5494ft 251kts
16-Nov-23 06:59 28.209997 -97.383650 342 5538ft 254kts
16-Nov-23 07:00 28.275931 -97.411069 336 5572ft 253kts
16-Nov-23 07:01 28.340766 -97.443227 337 5506ft 253kts
16-Nov-23 07:02 28.393682 -97.420343 82 4203ft 243kts
16-Nov-23 07:03 28.351065 -97.368778 156 2593ft 241kts
16-Nov-23 07:04 28.288712 -97.340352 159 2580ft 246kts
16-Nov-23 07:05 28.224751 -97.313002 149 2520ft 247kts
16-Nov-23 07:06 28.170670 -97.266139 137 2581ft 244kts
16-Nov-23 07:07 28.115073 -97.223130 165 2637ft 244kts
16-Nov-23 07:08 28.047885 -97.211777 187 2260ft 246kts
16-Nov-23 07:09 27.981932 -97.211656 171 1485ft 237kts
16-Nov-23 07:10 27.922639 -97.217117 159 917ft 202kts
16-Nov-23 07:11 27.923152 -97.201291 320 814ft 123kts
16-Nov-23 07:11 27.923332 -97.219870 168 231ft 116kts
16-Nov-23 07:12 27.903353 -97.194496 30 451ft 116kts
16-Nov-23 07:13 27.930724 -97.213183 279 787ft 118kts
16-Nov-23 07:15 27.904561 -97.200150 98 414ft 129kts
16-Nov-23 07:16 27.927948 -97.208695 317 828ft 114kts
16-Nov-23 07:16 27.914852 -97.213270 139 22ft 100kts
16-Nov-23 07:17 27.914347 -97.191368 338 790ft 124kts
16-Nov-23 07:18 27.930486 -97.218354 215 425ft 111kts
16-Nov-23 07:19 27.905356 -97.203604 120 505ft 122kts
16-Nov-23 07:21 27.931722 -97.209587 308 773ft 115kts
16-Nov-23 07:22 27.912886 -97.211367 138 49ft 116kts
16-Nov-23 07:22 27.913344 -97.193722 318 709ft 127kts
16-Nov-23 07:23 27.927879 -97.219927 200 388ft 113kts
16-Nov-23 07:24 27.903487 -97.199067 86 513ft 125kts
16-Nov-23 07:25 27.929427 -97.212698 309 806ft 118kts
16-Nov-23 07:26 27.910026 -97.208530 137 204ft 125kts
16-Nov-23 07:27 27.919300 -97.197960 315 889ft 121kts
16-Nov-23 07:28 27.923766 -97.221561 149 235ft 114kts
16-Nov-23 07:29 27.901329 -97.196202 77 740ft 118kts
16-Nov-23 07:30 27.927955 -97.208546 320 793ft 110kts
16-Nov-23 07:31 27.924717 -97.222582 140 251ft 119kts
16-Nov-23 07:32 27.900173 -97.197799 127 669ft 127kts
16-Nov-23 07:34 27.927237 -97.210108 311 717ft 112kts
16-Nov-23 07:34 27.913099 -97.219984 147 1036ft 157kts
16-Nov-23 07:35 27.880139 -97.171805 116 1028ft 223kts
16-Nov-23 07:36 27.825879 -97.151465 192 1126ft 238kts
16-Nov-23 07:37 27.764513 -97.175454 231 1085ft 223kts
16-Nov-23 07:38 27.751200 -97.239640 259 1064ft 206kts
16-Nov-23 07:39 27.735564 -97.300761 228 1096ft 198kts
16-Nov-23 07:40 27.690519 -97.283791 134 1070ft 202kts
16-Nov-23 07:41 27.709118 -97.279790 314 818ft 118kts
16-Nov-23 07:42 27.713506 -97.304712 176 485ft 126kts
16-Nov-23 07:43 27.690893 -97.286849 135 23ft 68kts
16-Nov-23 07:44 27.687646 -97.281473 51 22ft 0kts

Navigation Log

Ident Type
Flight plan parsing failed, navigation log unavailable